Time;durP1;ratioP1;P1;durP2;ratioP2;P2;SDS_P1;SDS_P2;PMS_P1;PMS_P2;Temp;Humidity;BMP_temperature;BMP_pressure;BME280_temperature;BME280_humidity;BME280_pressure;Samples;Min_cycle;Max_cycle;Signal;HPM_P1;HPM_P2
2021/01/03 00:00:30;;;;;;;39.17;19.93;;;1.50;99.90;;;;;;5075041;28;20040;-58
2021/01/03 00:02:56;;;;;;;37.97;22.17;;;1.50;99.90;;;;;;5076818;28;20465;-58
2021/01/03 00:05:25;;;;;;;41.00;19.23;;;1.50;99.90;;;;;;5077159;28;20672;-59
2021/01/03 00:07:51;;;;;;;36.83;21.83;;;1.50;99.90;;;;;;5076932;28;20249;-59
2021/01/03 00:10:17;;;;;;;45.03;21.43;;;1.50;99.90;;;;;;5075491;28;20260;-59
2021/01/03 00:12:43;;;;;;;38.67;22.00;;;1.50;99.90;;;;;;5076715;28;20185;-59
2021/01/03 00:15:13;;;;;;;40.83;19.47;;;1.50;99.90;;;;;;5076764;28;20265;-59
2021/01/03 00:17:39;;;;;;;36.43;19.80;;;1.50;99.90;;;;;;5076936;28;19905;-59
2021/01/03 00:20:13;;;;;;;42.03;21.50;;;1.60;99.90;;;;;;5075141;28;20583;-59
2021/01/03 00:22:39;;;;;;;36.65;19.65;;;1.60;99.90;;;;;;5076984;28;20039;-58
2021/01/03 00:25:06;;;;;;;39.87;21.37;;;1.60;99.90;;;;;;5077196;28;20261;-60
2021/01/03 00:27:32;;;;;;;38.13;20.63;;;1.60;99.90;;;;;;5076559;28;20028;-60
2021/01/03 00:29:58;;;;;;;44.43;22.37;;;1.60;99.90;;;;;;5076528;28;20269;-59
2021/01/03 00:32:23;;;;;;;36.50;19.07;;;1.70;99.90;;;;;;5076814;28;20025;-58
2021/01/03 00:34:49;;;;;;;36.47;21.50;;;1.60;99.90;;;;;;5088055;28;20043;-59
2021/01/03 00:37:15;;;;;;;36.23;20.20;;;1.70;99.90;;;;;;5096509;28;20164;-59
2021/01/03 00:39:41;;;;;;;36.90;19.67;;;1.70;99.90;;;;;;5096533;28;20741;-58
2021/01/03 00:42:06;;;;;;;39.00;19.87;;;1.70;99.90;;;;;;5096731;28;20055;-58
2021/01/03 00:44:33;;;;;;;36.40;19.73;;;1.60;99.90;;;;;;5096504;28;20093;-58
2021/01/03 00:46:58;;;;;;;38.20;21.95;;;1.70;99.90;;;;;;5096959;28;20100;-58
2021/01/03 00:49:24;;;;;;;34.37;20.00;;;1.70;99.90;;;;;;5096501;28;20730;-58
2021/01/03 00:51:50;;;;;;;39.80;20.90;;;1.70;99.90;;;;;;5096894;28;20032;-59
2021/01/03 00:54:15;;;;;;;34.67;18.47;;;1.70;99.90;;;;;;5096572;28;20039;-59
2021/01/03 00:56:41;;;;;;;38.07;20.50;;;1.70;99.90;;;;;;5096413;28;20039;-59
2021/01/03 00:59:06;;;;;;;36.27;20.60;;;1.70;99.90;;;;;;5096009;28;20125;-58
2021/01/03 01:01:32;;;;;;;38.07;20.53;;;1.70;99.90;;;;;;5094997;28;20123;-59
2021/01/03 01:03:58;;;;;;;38.53;21.00;;;1.70;99.90;;;;;;5096946;28;20038;-58
2021/01/03 01:06:23;;;;;;;35.97;20.53;;;1.70;99.90;;;;;;5096750;28;20055;-58
2021/01/03 01:08:51;;;;;;;38.53;20.87;;;1.70;99.90;;;;;;5096705;28;20036;-58
2021/01/03 01:11:18;;;;;;;38.10;21.87;;;1.70;99.90;;;;;;5096307;28;20400;-58
2021/01/03 01:13:43;;;;;;;41.30;20.37;;;1.70;99.90;;;;;;5095978;28;20590;-59
2021/01/03 01:16:09;;;;;;;42.87;20.57;;;1.70;99.90;;;;;;5096256;28;20264;-58
2021/01/03 01:18:36;;;;;;;37.10;20.00;;;1.70;99.90;;;;;;5096166;28;20090;-58
2021/01/03 01:21:02;;;;;;;35.93;19.63;;;1.70;99.90;;;;;;5083023;28;20360;-58
2021/01/03 01:23:28;;;;;;;35.70;21.27;;;1.70;99.90;;;;;;5075989;28;20257;-58
2021/01/03 01:25:54;;;;;;;34.17;19.17;;;1.80;99.90;;;;;;5075737;28;20360;-58
2021/01/03 01:28:19;;;;;;;36.03;20.70;;;1.80;99.90;;;;;;5075695;28;20040;-58
2021/01/03 01:30:45;;;;;;;37.13;21.27;;;1.70;99.90;;;;;;5075808;28;20033;-58
2021/01/03 01:33:11;;;;;;;34.73;20.27;;;1.80;99.90;;;;;;5076279;28;20028;-58
2021/01/03 01:35:37;;;;;;;36.50;18.90;;;1.80;99.90;;;;;;5075934;28;20443;-58
2021/01/03 01:38:04;;;;;;;36.70;18.97;;;1.70;99.90;;;;;;5075840;28;20032;-58
2021/01/03 01:40:35;;;;;;;33.70;18.57;;;1.80;99.90;;;;;;5073715;28;20041;-58
2021/01/03 01:43:01;;;;;;;33.90;19.33;;;1.80;99.90;;;;;;5075244;28;20249;-58
2021/01/03 01:45:30;;;;;;;34.53;18.93;;;1.80;99.90;;;;;;5076133;28;20579;-58
2021/01/03 01:48:00;;;;;;;37.07;19.33;;;1.80;99.90;;;;;;5076036;28;20277;-59
2021/01/03 01:50:39;;;;;;;30.60;17.80;;;1.80;99.90;;;;;;5075509;28;20308;-58
2021/01/03 01:53:08;;;;;;;34.73;17.67;;;1.80;99.90;;;;;;5076008;28;20257;-59
2021/01/03 01:55:40;;;;;;;30.17;17.87;;;1.80;99.90;;;;;;5089588;28;20253;-58
2021/01/03 01:58:12;;;;;;;28.30;15.43;;;1.90;99.90;;;;;;5096059;28;20298;-58
2021/01/03 02:00:42;;;;;;;25.00;15.97;;;1.80;99.90;;;;;;5095795;28;20683;-58
2021/01/03 02:03:20;;;;;;;26.73;15.27;;;1.80;99.90;;;;;;5095893;28;20265;-58
2021/01/03 02:05:52;;;;;;;23.10;13.53;;;1.90;99.90;;;;;;5097121;28;20253;-58
2021/01/03 02:08:22;;;;;;;25.07;13.67;;;1.80;99.90;;;;;;5099462;28;20248;-58
2021/01/03 02:10:49;;;;;;;21.70;13.43;;;1.90;99.90;;;;;;5099581;28;20253;-58
2021/01/03 02:13:41;;;;;;;21.70;13.27;;;1.90;99.90;;;;;;5099667;28;20263;-58
2021/01/03 02:16:15;;;;;;;24.10;13.40;;;1.90;99.90;;;;;;5098567;28;20317;-59
2021/01/03 02:18:43;;;;;;;22.83;12.80;;;1.90;99.90;;;;;;5099339;28;20276;-59
2021/01/03 02:21:40;;;;;;;24.30;13.83;;;1.90;99.90;;;;;;5097608;28;20749;-59
2021/01/03 02:24:23;;;;;;;21.30;12.20;;;1.90;99.90;;;;;;5098623;28;20253;-59
2021/01/03 02:27:04;;;;;;;22.45;12.50;;;1.90;99.90;;;;;;5099394;28;20306;-59
2021/01/03 02:29:31;;;;;;;19.93;12.87;;;1.90;99.90;;;;;;5099671;28;20430;-59
2021/01/03 02:32:01;;;;;;;20.07;12.93;;;1.90;99.90;;;;;;5099102;28;20256;-59
2021/01/03 02:34:35;;;;;;;20.83;11.97;;;1.90;99.90;;;;;;5098731;28;20261;-59
2021/01/03 02:37:35;;;;;;;23.73;13.33;;;1.90;99.90;;;;;;5098965;28;20264;-58
2021/01/03 02:40:18;;;;;;;20.67;11.93;;;1.90;99.90;;;;;;5098385;28;20771;-59
2021/01/03 02:42:43;;;;;;;22.15;13.63;;;1.90;99.90;;;;;;5097576;28;20267;-58
2021/01/03 02:45:20;;;;;;;23.47;13.17;;;1.90;99.90;;;;;;5099265;28;20031;-59
2021/01/03 02:47:47;;;;;;;20.57;12.40;;;1.90;99.90;;;;;;5099147;28;20074;-58
2021/01/03 02:50:23;;;;;;;25.50;13.07;;;1.90;99.90;;;;;;5098448;28;20265;-58
2021/01/03 02:52:49;;;;;;;23.87;13.50;;;1.90;99.90;;;;;;5098659;28;20257;-58
2021/01/03 02:55:15;;;;;;;24.00;14.47;;;1.90;99.90;;;;;;5098294;28;20683;-58
2021/01/03 02:57:41;;;;;;;23.53;13.10;;;1.90;99.90;;;;;;5098803;28;20031;-59
2021/01/03 03:00:10;;;;;;;22.80;12.83;;;1.90;99.90;;;;;;5097048;28;20287;-59
2021/01/03 03:02:36;;;;;;;22.70;12.43;;;1.90;99.90;;;;;;5096973;28;20019;-58
2021/01/03 03:05:03;;;;;;;21.20;12.63;;;1.90;99.90;;;;;;5098679;28;20259;-58
2021/01/03 03:07:29;;;;;;;21.03;12.00;;;1.90;99.90;;;;;;5098327;28;20024;-58
2021/01/03 03:09:54;;;;;;;23.27;12.77;;;1.90;99.90;;;;;;5098325;28;20575;-58
2021/01/03 03:12:20;;;;;;;26.33;13.47;;;1.90;99.90;;;;;;5098510;28;20093;-57
2021/01/03 03:14:46;;;;;;;22.67;12.47;;;2.00;99.90;;;;;;5096921;28;20441;-59
2021/01/03 03:17:12;;;;;;;22.57;12.27;;;2.00;99.90;;;;;;5096285;28;20020;-58
2021/01/03 03:19:37;;;;;;;23.47;13.27;;;2.00;99.90;;;;;;5095370;28;19999;-58
2021/01/03 03:22:04;;;;;;;19.63;11.63;;;2.00;99.90;;;;;;5077744;28;20356;-58
2021/01/03 03:24:29;;;;;;;22.70;12.40;;;2.00;99.90;;;;;;5078190;28;20335;-58
2021/01/03 03:27:00;;;;;;;22.93;13.13;;;2.00;99.90;;;;;;5076460;28;20623;-58
2021/01/03 03:29:27;;;;;;;22.20;14.13;;;2.00;99.90;;;;;;5077671;28;20029;-58
2021/01/03 03:31:53;;;;;;;22.20;12.03;;;2.00;99.90;;;;;;5092436;28;20331;-58
2021/01/03 03:34:21;;;;;;;22.63;13.97;;;2.00;99.90;;;;;;5097928;28;20260;-59
2021/01/03 03:36:47;;;;;;;24.63;13.50;;;2.00;99.90;;;;;;5098213;28;20574;-59
2021/01/03 03:39:12;;;;;;;21.73;13.50;;;2.00;99.90;;;;;;5097666;28;20268;-59
2021/01/03 03:41:39;;;;;;;22.10;12.43;;;2.00;99.90;;;;;;5097674;28;20024;-59
2021/01/03 03:44:05;;;;;;;21.63;13.17;;;2.00;99.90;;;;;;5098070;28;20028;-59
2021/01/03 03:46:31;;;;;;;22.80;14.20;;;2.00;99.90;;;;;;5098298;28;20620;-58
2021/01/03 03:48:57;;;;;;;21.73;12.23;;;2.00;99.90;;;;;;5097590;28;20268;-58
2021/01/03 03:51:23;;;;;;;23.07;13.50;;;2.00;99.90;;;;;;5097868;28;19908;-58
2021/01/03 03:53:49;;;;;;;21.90;11.93;;;2.00;99.90;;;;;;5097801;28;20055;-59
2021/01/03 03:56:16;;;;;;;23.07;13.13;;;2.00;99.90;;;;;;5097412;28;20023;-58
2021/01/03 03:58:41;;;;;;;22.17;13.17;;;2.00;99.90;;;;;;5096419;28;20369;-58
2021/01/03 04:01:09;;;;;;;24.53;12.80;;;2.00;99.90;;;;;;5096916;28;19920;-58
2021/01/03 04:03:35;;;;;;;23.67;13.27;;;2.00;99.90;;;;;;5097459;28;20028;-59
2021/01/03 04:06:01;;;;;;;23.17;13.37;;;2.00;99.90;;;;;;5097334;28;20759;-58
2021/01/03 04:08:27;;;;;;;22.63;12.87;;;2.00;99.90;;;;;;5097871;28;20035;-58
2021/01/03 04:10:53;;;;;;;22.77;13.03;;;2.00;99.90;;;;;;5097251;28;20028;-58
2021/01/03 04:13:19;;;;;;;20.47;11.60;;;2.00;99.90;;;;;;5097442;28;20035;-58
2021/01/03 04:15:45;;;;;;;19.40;11.57;;;2.10;99.90;;;;;;5096283;28;20256;-58
2021/01/03 04:18:11;;;;;;;20.10;11.43;;;2.10;99.90;;;;;;5097019;28;20038;-58
2021/01/03 04:20:37;;;;;;;22.07;13.47;;;2.10;99.90;;;;;;5096745;28;20089;-58
2021/01/03 04:23:07;;;;;;;21.87;13.00;;;2.10;99.90;;;;;;5096941;28;20248;-58
2021/01/03 04:25:33;;;;;;;22.20;12.63;;;2.10;99.90;;;;;;5096966;28;20245;-58
2021/01/03 04:27:59;;;;;;;19.70;12.00;;;2.10;99.90;;;;;;5096589;28;20736;-59
2021/01/03 04:30:25;;;;;;;21.47;13.00;;;2.10;99.90;;;;;;5097378;28;20117;-60
2021/01/03 04:32:51;;;;;;;19.50;11.50;;;2.10;99.90;;;;;;5097018;28;20178;-59
2021/01/03 04:35:19;;;;;;;22.37;12.93;;;2.10;99.90;;;;;;5096702;28;20318;-60
2021/01/03 04:37:45;;;;;;;22.57;13.10;;;2.20;99.90;;;;;;5096951;28;20429;-59
2021/01/03 04:40:18;;;;;;;19.10;11.73;;;2.10;99.90;;;;;;5095532;28;20269;-59
2021/01/03 04:42:45;;;;;;;19.80;11.70;;;2.20;99.90;;;;;;5096954;28;20349;-59
2021/01/03 04:45:18;;;;;;;20.20;12.30;;;2.20;99.90;;;;;;5096678;28;20362;-59
2021/01/03 04:48:06;;;;;;;18.90;11.75;;;2.20;99.90;;;;;;5096916;28;19927;-60
2021/01/03 04:50:47;;;;;;;18.33;11.07;;;2.20;99.90;;;;;;5096473;28;20024;-59
2021/01/03 04:53:16;;;;;;;22.03;11.00;;;2.20;99.90;;;;;;5096795;28;20020;-59
2021/01/03 04:55:47;;;;;;;19.90;11.77;;;2.30;99.90;;;;;;5096801;28;19904;-59
2021/01/03 04:58:12;;;;;;;16.77;10.70;;;2.30;99.90;;;;;;5096622;28;19908;-58
2021/01/03 05:01:01;;;;;;;18.83;10.10;;;2.30;99.90;;;;;;5096592;28;19923;-58
2021/01/03 05:03:50;;;;;;;16.93;11.43;;;2.30;99.90;;;;;;5096654;28;20423;-57
2021/01/03 05:06:19;;;;;;;14.50;9.80;;;2.30;99.90;;;;;;5095183;28;20024;-57
2021/01/03 05:08:49;;;;;;;17.17;10.70;;;2.30;99.90;;;;;;5096683;28;20024;-57
2021/01/03 05:11:18;;;;;;;19.17;11.50;;;2.30;99.90;;;;;;5095961;28;20035;-57
2021/01/03 05:13:58;;;;;;;20.27;11.30;;;2.30;99.90;;;;;;5096870;28;20023;-57
2021/01/03 05:16:24;;;;;;;18.67;10.77;;;2.30;99.90;;;;;;5096683;28;20028;-57
2021/01/03 05:18:49;;;;;;;19.40;11.57;;;2.40;99.90;;;;;;5096251;28;20373;-57
2021/01/03 05:21:15;;;;;;;17.77;10.43;;;2.40;99.90;;;;;;5081486;28;20040;-57
2021/01/03 05:24:00;;;;;;;19.13;11.53;;;2.40;99.90;;;;;;5075923;28;20037;-57
2021/01/03 05:26:31;;;;;;;20.37;11.10;;;2.40;99.90;;;;;;5076241;28;20020;-57
2021/01/03 05:28:57;;;;;;;16.10;10.13;;;2.40;99.90;;;;;;5075989;28;20672;-57
2021/01/03 05:31:24;;;;;;;18.87;10.43;;;2.40;99.90;;;;;;5076047;28;20115;-57
2021/01/03 05:34:28;;;;;;;20.40;11.30;;;2.50;99.90;;;;;;5076324;28;19944;-57
2021/01/03 05:37:03;;;;;;;16.88;9.93;;;2.50;99.90;;;;;;5072718;28;20320;-57
2021/01/03 05:39:31;;;;;;;18.17;10.03;;;2.50;99.90;;;;;;5075599;28;20024;-57
2021/01/03 05:42:18;;;;;;;17.73;9.73;;;2.50;99.90;;;;;;5078759;28;20339;-57
2021/01/03 05:44:58;;;;;;;17.60;10.20;;;2.50;99.90;;;;;;5079593;28;20013;-57
2021/01/03 05:47:36;;;;;;;19.17;10.90;;;2.50;99.90;;;;;;5080138;28;20430;-57
2021/01/03 05:50:16;;;;;;;17.37;9.53;;;2.50;99.90;;;;;;5079844;28;20063;-57
2021/01/03 05:53:06;;;;;;;22.53;10.80;;;2.60;99.90;;;;;;5079880;28;20379;-55
2021/01/03 05:55:32;;;;;;;19.43;10.00;;;2.60;99.90;;;;;;5092103;28;19911;-57
2021/01/03 05:58:28;;;;;;;17.73;10.30;;;2.60;99.90;;;;;;5098570;28;20043;-57
2021/01/03 06:00:54;;;;;;;16.60;10.05;;;2.60;99.90;;;;;;5099861;28;20636;-57
2021/01/03 06:03:24;;;;;;;16.47;9.93;;;2.60;99.90;;;;;;5099816;28;20040;-57
2021/01/03 06:06:18;;;;;;;22.17;10.63;;;2.60;99.90;;;;;;5099627;28;20669;-57
2021/01/03 06:08:47;;;;;;;18.57;9.93;;;2.60;99.90;;;;;;5099321;28;20279;-57
2021/01/03 06:11:16;;;;;;;18.83;10.57;;;2.60;99.90;;;;;;5099454;28;20024;-57
2021/01/03 06:13:53;;;;;;;19.53;10.87;;;2.60;99.90;;;;;;5099456;28;20426;-57
2021/01/03 06:16:28;;;;;;;19.90;9.70;;;2.60;99.90;;;;;;5099769;28;20026;-57
2021/01/03 06:19:10;;;;;;;21.00;10.55;;;2.60;99.90;;;;;;5099731;28;20291;-56
2021/01/03 06:21:38;;;;;;;16.93;9.50;;;2.70;99.90;;;;;;5099044;28;20256;-56
2021/01/03 06:24:19;;;;;;;17.57;9.07;;;2.70;99.90;;;;;;5099662;28;19947;-56
2021/01/03 06:27:26;;;;;;;18.67;9.87;;;2.70;99.90;;;;;;5099170;28;20027;-56
2021/01/03 06:30:05;;;;;;;16.83;10.00;;;2.70;99.90;;;;;;5088646;28;20036;-56
2021/01/03 06:32:45;;;;;;;18.30;9.37;;;2.70;99.90;;;;;;5099213;28;20100;-56
2021/01/03 06:35:26;;;;;;;16.03;8.00;;;2.70;99.90;;;;;;5099080;28;20020;-56
2021/01/03 06:37:56;;;;;;;16.10;9.83;;;2.70;99.90;;;;;;5099124;28;20252;-57
2021/01/03 06:40:44;;;;;;;18.07;9.80;;;2.70;99.90;;;;;;5099309;28;20024;-56
2021/01/03 06:43:43;;;;;;;15.80;9.10;;;2.70;99.90;;;;;;5098927;28;20349;-56
2021/01/03 06:46:19;;;;;;;17.00;9.10;;;2.70;99.90;;;;;;5098990;28;20033;-57
2021/01/03 06:49:06;;;;;;;16.03;8.63;;;2.70;99.90;;;;;;5097469;28;20020;-56
2021/01/03 06:51:46;;;;;;;18.87;9.97;;;2.70;99.90;;;;;;5098454;28;19928;-56
2021/01/03 06:54:18;;;;;;;20.83;11.07;;;2.70;99.90;;;;;;5098647;28;20111;-56
2021/01/03 06:57:01;;;;;;;20.80;11.10;;;2.70;99.90;;;;;;5098749;28;20027;-56
2021/01/03 06:59:45;;;;;;;20.13;10.97;;;2.70;99.90;;;;;;5098309;28;20032;-56
2021/01/03 07:02:11;;;;;;;16.27;8.90;;;2.70;99.90;;;;;;5098796;28;20028;-56
2021/01/03 07:04:38;;;;;;;17.20;9.53;;;2.70;99.90;;;;;;5097806;28;20032;-56
2021/01/03 07:07:19;;;;;;;18.57;10.80;;;2.70;99.90;;;;;;5098516;28;20023;-56
2021/01/03 07:10:19;;;;;;;17.43;9.60;;;2.70;99.90;;;;;;5097124;28;20256;-56
2021/01/03 07:12:47;;;;;;;17.73;10.33;;;2.80;99.90;;;;;;5086533;28;20040;-56
2021/01/03 07:15:22;;;;;;;15.63;9.07;;;2.70;99.90;;;;;;5098593;28;20167;-56
2021/01/03 07:17:56;;;;;;;14.33;9.13;;;2.80;99.90;;;;;;5098691;28;20031;-56
2021/01/03 07:20:50;;;;;;;14.47;9.17;;;2.70;99.90;;;;;;5090619;28;20017;-56
2021/01/03 07:23:41;;;;;;;14.27;8.98;;;2.80;99.90;;;;;;5078103;28;20427;-56
2021/01/03 07:26:29;;;;;;;17.73;9.00;;;2.80;99.90;;;;;;5077960;28;20032;-56
2021/01/03 07:29:00;;;;;;;14.50;8.40;;;2.80;99.90;;;;;;5077839;28;20055;-56
2021/01/03 07:31:29;;;;;;;17.00;9.63;;;2.80;99.90;;;;;;5077835;28;20253;-56
2021/01/03 07:34:10;;;;;;;15.03;9.23;;;2.80;99.90;;;;;;5078212;28;20028;-56
2021/01/03 07:37:13;;;;;;;15.50;9.40;;;2.80;99.90;;;;;;5078179;28;20306;-56
2021/01/03 07:40:13;;;;;;;15.03;8.40;;;2.70;99.90;;;;;;5077732;28;20041;-56
2021/01/03 07:42:42;;;;;;;15.33;9.03;;;2.70;99.90;;;;;;5077498;28;20103;-56
2021/01/03 07:45:33;;;;;;;15.70;9.27;;;2.70;99.90;;;;;;5077677;28;20334;-56
2021/01/03 07:48:00;;;;;;;17.37;9.20;;;2.80;99.90;;;;;;5074372;28;20040;-56
2021/01/03 07:50:38;;;;;;;16.87;10.13;;;2.80;99.90;;;;;;5076988;28;20035;-56
2021/01/03 07:53:35;;;;;;;14.17;8.40;;;2.70;99.90;;;;;;5077647;28;20025;-56
2021/01/03 07:56:30;;;;;;;15.50;8.53;;;2.70;99.90;;;;;;5077179;28;20069;-56
2021/01/03 07:58:58;;;;;;;17.73;8.93;;;2.70;99.90;;;;;;5077376;28;20273;-56
2021/01/03 08:01:31;;;;;;;19.57;10.43;;;2.70;99.90;;;;;;5076713;28;20466;-56
2021/01/03 08:03:56;;;;;;;19.00;10.23;;;2.70;99.90;;;;;;5076517;28;19911;-56
2021/01/03 08:06:22;;;;;;;18.53;10.03;;;2.70;99.90;;;;;;5077206;28;20020;-56
2021/01/03 08:08:54;;;;;;;17.70;9.50;;;2.70;99.90;;;;;;5076754;28;20703;-56
2021/01/03 08:11:35;;;;;;;16.90;8.98;;;2.70;99.90;;;;;;5077217;28;20032;-56
2021/01/03 08:14:08;;;;;;;17.80;10.20;;;2.70;99.90;;;;;;5076829;28;20028;-56
2021/01/03 08:16:37;;;;;;;15.00;8.43;;;2.70;99.90;;;;;;5076877;28;20025;-56
2021/01/03 08:19:08;;;;;;;16.27;9.63;;;2.70;99.90;;;;;;5084842;28;20153;-56
2021/01/03 08:21:37;;;;;;;16.77;9.87;;;2.70;99.90;;;;;;5095333;28;20249;-56
2021/01/03 08:24:13;;;;;;;14.80;9.00;;;2.70;99.90;;;;;;5097311;28;20012;-56
2021/01/03 08:27:10;;;;;;;17.70;9.10;;;2.70;99.90;;;;;;5097476;28;20020;-56
2021/01/03 08:29:54;;;;;;;17.47;10.80;;;2.70;99.90;;;;;;5096947;28;20436;-57
2021/01/03 08:32:24;;;;;;;;;;;2.70;99.90;;;;;;5097835;28;20453;-56
2021/01/03 08:34:50;;;;;;;16.03;8.03;;;2.70;99.90;;;;;;5096842;28;19914;-56
2021/01/03 08:37:25;;;;;;;19.80;10.03;;;2.70;99.90;;;;;;5096811;28;20402;-56
2021/01/03 08:39:53;;;;;;;19.93;9.63;;;2.70;99.90;;;;;;5097089;28;20431;-56
2021/01/03 08:42:27;;;;;;;18.67;10.40;;;2.70;99.90;;;;;;5096649;28;20024;-56
2021/01/03 08:44:57;;;;;;;19.43;10.23;;;2.70;99.90;;;;;;5096951;28;20428;-56
2021/01/03 08:47:43;;;;;;;17.83;10.10;;;2.70;99.90;;;;;;5096359;28;20019;-56
2021/01/03 08:50:11;;;;;;;16.93;9.23;;;2.70;99.90;;;;;;5095275;28;20028;-56
2021/01/03 08:52:37;;;;;;;18.97;9.07;;;2.80;99.90;;;;;;5096708;28;19904;-56
2021/01/03 08:55:16;;;;;;;18.60;10.23;;;2.70;99.90;;;;;;5095619;28;20032;-56
2021/01/03 08:57:43;;;;;;;14.43;8.47;;;2.70;99.90;;;;;;5096505;28;20499;-56
2021/01/03 09:00:19;;;;;;;15.83;8.23;;;2.70;99.90;;;;;;5096243;28;20373;-57
2021/01/03 09:02:47;;;;;;;14.10;8.40;;;2.70;99.90;;;;;;5096889;28;20024;-56
2021/01/03 09:05:17;;;;;;;15.60;8.97;;;2.80;99.90;;;;;;5096235;28;20020;-56
2021/01/03 09:07:43;;;;;;;16.77;8.63;;;2.80;99.90;;;;;;5096373;28;20032;-56
2021/01/03 09:10:20;;;;;;;13.97;7.70;;;2.80;99.90;;;;;;5096691;28;20028;-56
2021/01/03 09:12:47;;;;;;;15.33;8.27;;;2.80;99.90;;;;;;5096566;28;20024;-56
2021/01/03 09:15:23;;;;;;;16.57;10.07;;;2.80;99.90;;;;;;5098413;28;20445;-56
2021/01/03 09:18:29;;;;;;;15.97;9.00;;;2.80;99.90;;;;;;5100917;28;20304;-56
2021/01/03 09:21:01;;;;;;;15.43;8.67;;;2.80;99.90;;;;;;5087836;28;20230;-56
2021/01/03 09:23:29;;;;;;;17.13;7.43;;;2.80;99.90;;;;;;5080099;28;20119;-56
2021/01/03 09:25:57;;;;;;;14.47;8.43;;;2.90;99.90;;;;;;5080477;28;20024;-56
2021/01/03 09:28:32;;;;;;;17.07;8.87;;;2.90;99.90;;;;;;5080306;28;20032;-56
2021/01/03 09:31:14;;;;;;;15.20;8.00;;;2.90;99.90;;;;;;5080236;28;20024;-56
2021/01/03 09:33:41;;;;;;;14.53;7.80;;;2.90;99.90;;;;;;5080165;28;20471;-56
2021/01/03 09:36:07;;;;;;;17.43;8.23;;;2.90;99.90;;;;;;5079831;28;20060;-56
2021/01/03 09:38:38;;;;;;;16.03;8.30;;;2.90;99.90;;;;;;5079672;28;20117;-56
2021/01/03 09:41:23;;;;;;;17.80;9.43;;;3.00;99.90;;;;;;5080103;28;20027;-56
2021/01/03 09:44:33;;;;;;;16.80;8.17;;;3.00;99.90;;;;;;5079867;28;20012;-56
2021/01/03 09:47:14;;;;;;;12.87;7.97;;;3.00;99.90;;;;;;5079622;28;20074;-56
2021/01/03 09:49:46;;;;;;;17.27;9.10;;;3.00;99.90;;;;;;5079992;28;20052;-56
2021/01/03 09:52:35;;;;;;;15.63;8.13;;;3.00;99.90;;;;;;5079975;28;20115;-56
2021/01/03 09:55:03;;;;;;;13.53;8.37;;;3.00;99.90;;;;;;5086902;28;20058;-56
2021/01/03 09:57:54;;;;;;;15.90;9.03;;;3.00;99.90;;;;;;5100199;28;20418;-58
2021/01/03 10:00:43;;;;;;;16.63;8.93;;;3.10;99.90;;;;;;5099628;28;20288;-58
2021/01/03 10:03:34;;;;;;;13.70;8.20;;;3.10;99.90;;;;;;5099557;28;20028;-58
2021/01/03 10:06:14;;;;;;;16.77;8.83;;;3.10;99.90;;;;;;5099699;28;20073;-58
2021/01/03 10:08:40;;;;;;;13.97;8.07;;;3.20;99.90;;;;;;5098091;28;20030;-58
2021/01/03 10:11:06;;;;;;;13.57;7.20;;;3.30;99.90;;;;;;5098307;28;20027;-58
2021/01/03 10:13:32;;;;;;;17.87;8.30;;;3.20;99.90;;;;;;5099705;28;20106;-58
2021/01/03 10:16:15;;;;;;;15.70;8.67;;;3.30;99.90;;;;;;5099248;28;20028;-58
2021/01/03 10:18:41;;;;;;;16.67;7.88;;;3.40;99.90;;;;;;5099511;28;19908;-58
2021/01/03 10:21:25;;;;;;;13.83;8.13;;;3.40;99.90;;;;;;5085103;28;20036;-58
2021/01/03 10:23:58;;;;;;;;;;;3.40;99.90;;;;;;5079137;28;20028;-57
2021/01/03 10:26:29;;;;;;;14.70;7.13;;;3.40;99.90;;;;;;5077790;28;19916;-58
2021/01/03 10:28:55;;;;;;;14.30;7.87;;;3.50;99.90;;;;;;5079200;28;20020;-58
2021/01/03 10:31:22;;;;;;;14.07;7.37;;;3.50;99.90;;;;;;5078664;28;20419;-58
2021/01/03 10:33:49;;;;;;;11.53;7.03;;;3.60;99.90;;;;;;5078987;28;20115;-58
2021/01/03 10:36:21;;;;;;;12.07;6.73;;;3.60;99.90;;;;;;5078563;28;20029;-58
2021/01/03 10:38:48;;;;;;;16.37;7.07;;;3.60;99.90;;;;;;5077814;28;20059;-58
2021/01/03 10:41:15;;;;;;;11.60;7.37;;;3.80;99.90;;;;;;5078582;28;20016;-58
2021/01/03 10:43:41;;;;;;;12.50;6.80;;;3.80;99.90;;;;;;5078496;28;20052;-58
2021/01/03 10:46:06;;;;;;;13.87;6.63;;;3.80;99.90;;;;;;5078322;28;20059;-58
2021/01/03 10:48:32;;;;;;;10.00;6.50;;;3.70;99.90;;;;;;5078530;28;20024;-57
2021/01/03 10:50:57;;;;;;;11.20;6.67;;;3.80;99.90;;;;;;5079497;28;20028;-58
2021/01/03 10:53:23;;;;;;;11.30;6.57;;;3.70;99.90;;;;;;5098554;28;20442;-58
2021/01/03 10:55:49;;;;;;;12.47;6.73;;;3.70;99.90;;;;;;5097820;28;20027;-58
2021/01/03 10:58:15;;;;;;;12.63;7.13;;;3.60;99.90;;;;;;5098432;28;20376;-58
2021/01/03 11:00:40;;;;;;;11.50;7.10;;;3.70;99.90;;;;;;5098105;28;20055;-57
2021/01/03 11:03:06;;;;;;;12.27;7.53;;;3.70;99.90;;;;;;5097720;28;20028;-57
2021/01/03 11:05:32;;;;;;;13.73;8.43;;;3.70;99.90;;;;;;5098170;28;20210;-57
2021/01/03 11:07:59;;;;;;;11.03;7.17;;;3.70;99.90;;;;;;5098465;28;20048;-58
2021/01/03 11:10:25;;;;;;;13.83;6.83;;;3.90;99.90;;;;;;5098354;28;20050;-58
2021/01/03 11:12:51;;;;;;;13.67;7.60;;;3.90;99.90;;;;;;5098242;28;20028;-58
2021/01/03 11:15:16;;;;;;;12.87;7.13;;;3.90;99.90;;;;;;5098354;28;20123;-58
2021/01/03 11:17:42;;;;;;;14.30;7.03;;;3.80;99.90;;;;;;5098410;28;20052;-58
2021/01/03 11:20:08;;;;;;;16.37;8.50;;;3.90;99.90;;;;;;5098329;28;20024;-58
2021/01/03 11:22:34;;;;;;;14.67;8.10;;;3.90;99.90;;;;;;5098718;28;20074;-58
2021/01/03 11:24:59;;;;;;;13.73;7.70;;;3.90;99.90;;;;;;5097805;28;20032;-57
2021/01/03 11:27:26;;;;;;;16.03;8.50;;;3.90;99.90;;;;;;5096337;28;20024;-59
2021/01/03 11:29:52;;;;;;;14.80;7.63;;;3.90;99.90;;;;;;5097947;28;20024;-57
2021/01/03 11:32:24;;;;;;;11.97;6.53;;;3.90;99.90;;;;;;5097838;28;20034;-57
2021/01/03 11:34:51;;;;;;;19.83;9.03;;;3.90;99.90;;;;;;5093370;28;20028;-57
2021/01/03 11:37:20;;;;;;;11.73;7.23;;;4.00;99.90;;;;;;5097580;28;20030;-57
2021/01/03 11:39:47;;;;;;;10.67;6.10;;;4.00;99.90;;;;;;5097078;28;20066;-58
2021/01/03 11:42:16;;;;;;;12.30;6.37;;;4.00;99.90;;;;;;5097935;28;20031;-58
2021/01/03 11:44:44;;;;;;;13.53;7.23;;;4.00;99.90;;;;;;5096568;28;20077;-57
2021/01/03 11:47:13;;;;;;;13.83;8.00;;;4.00;99.90;;;;;;5092129;28;20039;-58
2021/01/03 11:49:39;;;;;;;14.07;7.73;;;4.00;99.90;;;;;;5096953;28;20030;-58
2021/01/03 11:52:07;;;;;;;15.63;7.23;;;4.10;99.90;;;;;;5077475;28;20073;-58
2021/01/03 11:54:35;;;;;;;16.40;8.23;;;4.20;99.90;;;;;;5075942;28;20071;-57
2021/01/03 11:57:00;;;;;;;13.20;7.20;;;4.10;99.90;;;;;;5077362;28;20350;-58
2021/01/03 11:59:27;;;;;;;10.73;6.47;;;4.10;99.90;;;;;;5076876;28;20029;-58
2021/01/03 12:01:57;;;;;;;14.67;8.13;;;4.10;99.90;;;;;;5076938;28;20036;-58
2021/01/03 12:04:23;;;;;;;12.33;7.07;;;4.30;99.90;;;;;;5077316;28;20366;-57
2021/01/03 12:06:54;;;;;;;14.67;8.57;;;4.10;99.90;;;;;;5080375;28;20016;-57
2021/01/03 12:09:20;;;;;;;16.10;8.27;;;4.10;99.90;;;;;;5095389;28;20118;-57
2021/01/03 12:11:51;;;;;;;16.67;7.67;;;4.10;99.90;;;;;;5096822;28;20067;-58
2021/01/03 12:14:16;;;;;;;14.07;7.67;;;4.10;99.90;;;;;;5097058;28;20028;-57
2021/01/03 12:16:42;;;;;;;14.20;8.40;;;4.10;99.90;;;;;;5097077;28;20032;-57
2021/01/03 12:19:07;;;;;;;12.67;7.90;;;4.20;99.90;;;;;;5097146;28;20101;-58
2021/01/03 12:21:33;;;;;;;16.50;8.40;;;4.20;99.90;;;;;;5079169;28;20370;-58
2021/01/03 12:23:59;;;;;;;14.17;8.23;;;4.30;99.90;;;;;;5078099;28;20029;-57
2021/01/03 12:26:37;;;;;;;17.50;9.20;;;4.30;99.90;;;;;;5097073;28;20028;-57
2021/01/03 12:29:04;;;;;;;13.33;8.37;;;4.10;99.90;;;;;;5097000;28;20099;-57
2021/01/03 12:31:38;;;;;;;15.07;8.70;;;4.20;99.90;;;;;;5089934;28;20028;-58
2021/01/03 12:34:05;;;;;;;15.83;8.23;;;4.20;99.90;;;;;;5097286;28;20414;-58
2021/01/03 12:36:31;;;;;;;12.57;8.00;;;4.10;99.90;;;;;;5095973;28;20039;-57
2021/01/03 12:38:56;;;;;;;14.70;9.73;;;4.20;99.90;;;;;;5092418;28;20036;-57
2021/01/03 12:41:23;;;;;;;13.53;9.07;;;4.30;99.90;;;;;;5084185;28;20327;-57
2021/01/03 12:43:49;;;;;;;17.37;8.50;;;4.50;99.90;;;;;;5076312;28;20035;-59
2021/01/03 12:46:30;;;;;;;13.83;8.00;;;4.60;99.90;;;;;;5075232;28;20029;-57
2021/01/03 12:48:56;;;;;;;17.13;8.43;;;4.60;99.90;;;;;;5076200;28;20032;-57
2021/01/03 12:51:22;;;;;;;15.77;7.93;;;4.60;99.90;;;;;;5076242;28;20097;-57
2021/01/03 12:53:48;;;;;;;14.53;8.27;;;4.50;99.90;;;;;;5076597;28;20040;-57
2021/01/03 12:56:14;;;;;;;16.53;8.60;;;4.60;99.90;;;;;;5090400;28;20028;-57
2021/01/03 12:58:40;;;;;;;11.23;6.67;;;4.60;99.90;;;;;;5095809;28;20069;-57
2021/01/03 13:01:06;;;;;;;13.77;8.27;;;4.60;99.90;;;;;;5095932;28;20125;-57
2021/01/03 13:03:32;;;;;;;14.63;8.53;;;4.60;99.90;;;;;;5095405;28;20426;-57
2021/01/03 13:05:58;;;;;;;17.50;8.13;;;4.50;99.90;;;;;;5094669;28;20024;-57